Dorton, Kentucky
Current Conditions -  °F | °C
As of 9:15 AM on Friday 24 Oct 2014 (Local Time) from KPBX Reporting Station
Moderate Fog Moderate Fog  
Wind Chill: 40°   Ceiling: 200
Heat Index: 40°   Visibility: 0mi
Dew Point: 40°   Wind: 3mph
Humidity: 99%   Direction: 170°S
Pressure: 30.14"   Gusts: NA
Location:  37.28°N, 82.58°W
Report Text: KPBX 241315Z AUTO 17003KT M1/4SM FG OVC002 05/05 A3014 RMK AO2 T00470046
Loading
Personal Weather Stations






























Interactive Weather Map
Tropical Storm Tracking
New forecast layout! Learn more

10-Day Weather Forecast

Advertisements
Track Severe Weather on mobile